createdAt,value
2024-05-09T00:00:00.714Z,0.0
2024-05-09T00:01:00.760Z,0.0
2024-05-09T00:02:00.685Z,0.0
2024-05-09T00:03:00.840Z,0.0
2024-05-09T00:04:01.046Z,0.0
2024-05-09T00:05:00.782Z,0.0
2024-05-09T00:06:01.010Z,0.0
2024-05-09T00:07:00.649Z,0.0
2024-05-09T00:08:00.914Z,0.0
2024-05-09T00:09:00.731Z,0.0
2024-05-09T00:10:01.139Z,0.0
2024-05-09T00:11:00.601Z,0.0
2024-05-09T00:12:00.700Z,0.0
2024-05-09T00:13:01.205Z,0.0
2024-05-09T00:14:01.040Z,0.0
2024-05-09T00:15:00.534Z,0.0
2024-05-09T00:16:00.604Z,0.0
2024-05-09T00:17:00.730Z,0.0
2024-05-09T00:18:00.938Z,0.0
2024-05-09T00:19:00.580Z,0.0
2024-05-09T00:20:00.740Z,0.0
2024-05-09T00:21:02.849Z,0.0
2024-05-09T00:22:00.621Z,0.0
2024-05-09T00:23:00.637Z,0.0
2024-05-09T00:24:00.605Z,0.0
2024-05-09T00:25:00.535Z,0.0
2024-05-09T00:26:00.639Z,0.0
2024-05-09T00:27:00.502Z,0.0
2024-05-09T00:28:00.657Z,0.0
2024-05-09T00:29:00.552Z,0.0
2024-05-09T00:30:00.504Z,0.0
2024-05-09T00:31:01.400Z,0.0
2024-05-09T00:32:00.681Z,0.0
2024-05-09T00:33:00.751Z,0.0
2024-05-09T00:34:00.814Z,0.0
2024-05-09T00:35:00.642Z,0.0
2024-05-09T00:36:00.474Z,0.0
2024-05-09T00:37:00.465Z,0.0
2024-05-09T00:38:00.873Z,0.0
2024-05-09T00:39:00.479Z,0.0
2024-05-09T00:40:00.571Z,0.0
2024-05-09T00:41:00.527Z,0.0
2024-05-09T00:42:00.462Z,0.0
2024-05-09T00:43:00.472Z,0.0
2024-05-09T00:44:00.564Z,0.0
2024-05-09T00:45:00.471Z,0.0
2024-05-09T00:46:00.858Z,0.0
2024-05-09T00:47:00.660Z,0.0
2024-05-09T00:48:02.140Z,0.0
2024-05-09T00:49:00.720Z,0.0
2024-05-09T00:50:01.158Z,0.0
2024-05-09T00:51:00.975Z,0.0
2024-05-09T00:52:00.979Z,0.0
2024-05-09T00:53:00.641Z,0.0
2024-05-09T00:54:00.741Z,0.0
2024-05-09T00:55:00.679Z,0.0
2024-05-09T00:56:00.657Z,0.0
2024-05-09T00:57:01.834Z,0.0
2024-05-09T00:58:00.827Z,0.0
2024-05-09T00:59:01.332Z,0.0
2024-05-09T01:00:00.636Z,0.0
2024-05-09T01:01:01.667Z,0.0
2024-05-09T01:02:00.586Z,0.0
2024-05-09T01:03:00.759Z,0.0
2024-05-09T01:04:01.296Z,0.0
2024-05-09T01:05:00.930Z,0.0
2024-05-09T01:06:00.527Z,0.0
2024-05-09T01:07:00.511Z,0.0
2024-05-09T01:08:01.140Z,0.0
2024-05-09T01:09:00.510Z,0.0
2024-05-09T01:10:00.497Z,0.0
2024-05-09T01:11:00.736Z,0.0
2024-05-09T01:12:00.707Z,0.0
2024-05-09T01:13:00.511Z,0.0
2024-05-09T01:14:00.529Z,0.0
2024-05-09T01:15:00.519Z,0.0
2024-05-09T01:16:01.296Z,0.0
2024-05-09T01:17:00.516Z,0.0
2024-05-09T01:18:02.786Z,0.0
2024-05-09T01:19:03.082Z,0.0
2024-05-09T01:20:00.547Z,0.0
2024-05-09T01:21:00.563Z,0.0
2024-05-09T01:22:00.496Z,0.0
2024-05-09T01:23:05.124Z,0.0
2024-05-09T01:24:00.568Z,0.0
2024-05-09T01:25:00.470Z,0.0
2024-05-09T01:26:00.638Z,0.0
2024-05-09T01:27:00.525Z,0.0
2024-05-09T01:28:00.707Z,0.0
2024-05-09T01:29:00.594Z,0.0
2024-05-09T01:30:00.759Z,0.0
2024-05-09T01:31:00.489Z,0.0
2024-05-09T01:32:00.598Z,0.0
2024-05-09T01:33:00.693Z,0.0
2024-05-09T01:34:00.597Z,0.0
2024-05-09T01:35:00.533Z,0.0
2024-05-09T01:36:00.483Z,0.0
2024-05-09T01:37:00.464Z,0.0
2024-05-09T01:38:00.600Z,0.0
2024-05-09T01:39:00.511Z,0.0
2024-05-09T01:40:00.538Z,0.0
2024-05-09T01:41:00.553Z,0.0
2024-05-09T01:42:00.525Z,0.0
2024-05-09T01:43:00.488Z,0.0
2024-05-09T01:44:00.638Z,0.0
2024-05-09T01:45:00.496Z,0.0
2024-05-09T01:46:00.521Z,0.0
2024-05-09T01:47:00.564Z,0.0
2024-05-09T01:48:01.026Z,0.0
2024-05-09T01:49:00.525Z,0.0
2024-05-09T01:50:00.768Z,0.0
2024-05-09T01:51:00.667Z,0.0
2024-05-09T01:52:00.493Z,0.0
2024-05-09T01:53:00.515Z,0.0
2024-05-09T01:54:00.930Z,0.0
2024-05-09T01:55:03.530Z,0.0
2024-05-09T01:56:00.571Z,0.0
2024-05-09T01:57:00.535Z,0.0
2024-05-09T01:58:00.489Z,0.0
2024-05-09T01:59:00.538Z,0.0
2024-05-09T02:00:00.550Z,0.0
2024-05-09T02:01:00.579Z,0.0
2024-05-09T02:02:00.892Z,0.0
2024-05-09T02:03:00.849Z,0.0
2024-05-09T02:04:00.646Z,0.0
2024-05-09T02:05:00.697Z,0.0
2024-05-09T02:06:00.522Z,0.0
2024-05-09T02:07:01.055Z,0.0
2024-05-09T02:08:00.537Z,0.0
2024-05-09T02:09:00.499Z,0.0
2024-05-09T02:10:00.490Z,0.0
2024-05-09T02:11:00.703Z,0.0
2024-05-09T02:12:00.918Z,0.0
2024-05-09T02:13:00.514Z,0.0
2024-05-09T02:14:00.551Z,0.0
2024-05-09T02:15:00.516Z,0.0
2024-05-09T02:16:00.584Z,0.0
2024-05-09T02:17:00.529Z,0.0
2024-05-09T02:18:00.862Z,0.0
2024-05-09T02:19:00.536Z,0.0
2024-05-09T02:20:00.570Z,0.0
2024-05-09T02:21:00.754Z,0.0
2024-05-09T02:22:00.483Z,0.0
2024-05-09T02:23:00.510Z,0.0
2024-05-09T02:24:00.473Z,0.0
2024-05-09T02:25:00.490Z,0.0
2024-05-09T02:26:00.590Z,0.0
2024-05-09T02:27:00.566Z,0.0
2024-05-09T02:28:00.871Z,0.0
2024-05-09T02:29:00.708Z,0.0
2024-05-09T02:30:00.626Z,0.0
2024-05-09T02:31:00.488Z,0.0
2024-05-09T02:32:00.735Z,0.0
2024-05-09T02:33:00.838Z,0.0
2024-05-09T02:34:00.680Z,0.0
2024-05-09T02:35:00.579Z,0.0
2024-05-09T02:36:00.495Z,0.0
2024-05-09T02:37:00.478Z,0.0
2024-05-09T02:38:00.893Z,0.0
2024-05-09T02:39:00.616Z,0.0
2024-05-09T02:40:00.503Z,0.0
2024-05-09T02:41:00.539Z,0.0
2024-05-09T02:42:00.470Z,0.0
2024-05-09T02:43:00.481Z,0.0
2024-05-09T02:44:00.566Z,0.0
2024-05-09T02:45:00.511Z,0.0
2024-05-09T02:46:00.542Z,0.0
2024-05-09T02:47:00.493Z,0.0
2024-05-09T02:48:01.703Z,0.0
2024-05-09T02:49:00.604Z,0.0
2024-05-09T02:50:00.581Z,0.0
2024-05-09T02:51:00.883Z,0.0
2024-05-09T02:52:00.496Z,0.0
2024-05-09T02:53:00.594Z,0.0
2024-05-09T02:54:00.509Z,0.0
2024-05-09T02:55:00.488Z,0.0
2024-05-09T02:56:00.680Z,0.0
2024-05-09T02:57:00.547Z,0.0
2024-05-09T02:58:00.504Z,0.0
2024-05-09T02:59:00.655Z,0.0
2024-05-09T03:00:00.530Z,0.0
2024-05-09T03:01:00.740Z,0.0
2024-05-09T03:02:00.641Z,0.0
2024-05-09T03:03:00.885Z,0.0
2024-05-09T03:04:00.627Z,0.1
2024-05-09T03:05:00.498Z,0.1
2024-05-09T03:06:00.733Z,0.1
2024-05-09T03:07:00.479Z,0.2
2024-05-09T03:08:00.580Z,0.2
2024-05-09T03:09:00.474Z,0.3
2024-05-09T03:10:00.661Z,0.5
2024-05-09T03:11:00.636Z,0.6
2024-05-09T03:12:00.670Z,0.7
2024-05-09T03:13:04.317Z,0.8
2024-05-09T03:14:00.876Z,0.9
2024-05-09T03:15:00.508Z,1.1
2024-05-09T03:16:00.472Z,1.4
2024-05-09T03:17:00.682Z,1.7
2024-05-09T03:18:00.921Z,2.0
2024-05-09T03:19:00.551Z,2.4
2024-05-09T03:20:01.643Z,2.9
2024-05-09T03:21:00.686Z,3.4
2024-05-09T03:22:00.607Z,4.1
2024-05-09T03:23:00.623Z,4.9
2024-05-09T03:24:00.590Z,5.8
2024-05-09T03:25:00.580Z,6.8
2024-05-09T03:26:00.678Z,8.0
2024-05-09T03:27:00.521Z,9.4
2024-05-09T03:28:00.680Z,11.0
2024-05-09T03:29:00.717Z,12.8
2024-05-09T03:30:00.654Z,15.1
2024-05-09T03:31:00.519Z,17.4
2024-05-09T03:32:00.781Z,20.3
2024-05-09T03:33:00.753Z,23.5
2024-05-09T03:34:00.842Z,27.1
2024-05-09T03:35:00.678Z,31.0
2024-05-09T03:36:01.316Z,35.5
2024-05-09T03:37:00.654Z,40.6
2024-05-09T03:38:00.672Z,46.1
2024-05-09T03:39:00.465Z,52.2
2024-05-09T03:40:00.660Z,58.7
2024-05-09T03:41:00.713Z,66.1
2024-05-09T03:42:00.521Z,73.9
2024-05-09T03:43:00.596Z,82.5
2024-05-09T03:44:00.700Z,91.6
2024-05-09T03:45:00.525Z,101.4
2024-05-09T03:46:00.495Z,111.8
2024-05-09T03:47:00.535Z,122.9
2024-05-09T03:48:00.698Z,134.7
2024-05-09T03:49:00.619Z,147.1
2024-05-09T03:50:00.644Z,160.4
2024-05-09T03:51:00.646Z,174.4
2024-05-09T03:52:00.511Z,189.4
2024-05-09T03:53:01.270Z,204.8
2024-05-09T03:54:00.497Z,220.8
2024-05-09T03:55:00.657Z,237.7
2024-05-09T03:56:00.635Z,255.4
2024-05-09T03:57:00.851Z,273.5
2024-05-09T03:58:00.712Z,292.1
2024-05-09T03:59:00.524Z,311.3
2024-05-09T04:00:00.505Z,330.7
2024-05-09T04:01:00.580Z,350.9
2024-05-09T04:02:00.650Z,371.8
2024-05-09T04:03:00.852Z,392.8
2024-05-09T04:04:00.540Z,414.4
2024-05-09T04:05:00.563Z,436.6
2024-05-09T04:06:00.578Z,459.3
2024-05-09T04:07:00.482Z,482.0
2024-05-09T04:08:00.700Z,504.7
2024-05-09T04:09:00.548Z,528.0
2024-05-09T04:10:00.489Z,551.1
2024-05-09T04:11:00.562Z,575.0
2024-05-09T04:12:00.587Z,598.8
2024-05-09T04:13:00.714Z,623.0
2024-05-09T04:14:00.628Z,646.9
2024-05-09T04:15:00.501Z,671.1
2024-05-09T04:16:00.496Z,695.4
2024-05-09T04:17:00.574Z,719.2
2024-05-09T04:18:01.522Z,744.4
2024-05-09T04:19:00.614Z,769.5
2024-05-09T04:20:00.740Z,799.6
2024-05-09T04:21:02.083Z,835.3
2024-05-09T04:22:00.473Z,865.0
2024-05-09T04:23:00.528Z,890.5
2024-05-09T04:24:00.475Z,917.4
2024-05-09T04:25:00.546Z,945.9
2024-05-09T04:26:00.687Z,972.2
2024-05-09T04:27:00.514Z,999.0
2024-05-09T04:28:00.527Z,1026.7
2024-05-09T04:29:00.513Z,1047.9
2024-05-09T04:30:00.528Z,1073.8
2024-05-09T04:31:00.480Z,1098.6
2024-05-09T04:32:00.672Z,1122.8
2024-05-09T04:33:01.528Z,1145.5
2024-05-09T04:34:00.601Z,1168.8
2024-05-09T04:35:00.484Z,1197.2
2024-05-09T04:36:00.486Z,1220.5
2024-05-09T04:37:00.989Z,1245.0
2024-05-09T04:38:00.654Z,1269.8
2024-05-09T04:39:00.574Z,1291.5
2024-05-09T04:40:00.517Z,1313.6
2024-05-09T04:41:00.583Z,1340.8
2024-05-09T04:42:00.488Z,1365.6
2024-05-09T04:43:00.502Z,1385.3
2024-05-09T04:44:00.521Z,1410.3
2024-05-09T04:45:00.486Z,1436.6
2024-05-09T04:46:00.474Z,1455.2
2024-05-09T04:47:00.539Z,1476.1
2024-05-09T04:48:01.455Z,1499.5
2024-05-09T04:49:00.853Z,1520.6
2024-05-09T04:50:00.586Z,1548.8
2024-05-09T04:51:00.733Z,1572.5
2024-05-09T04:52:00.511Z,1585.4
2024-05-09T04:53:00.585Z,1669.5
2024-05-09T04:54:00.538Z,1700.2
2024-05-09T04:55:00.477Z,1737.3
2024-05-09T04:56:00.623Z,1717.1
2024-05-09T04:57:00.470Z,1789.0
2024-05-09T04:58:00.500Z,1811.5
2024-05-09T04:59:00.599Z,1837.5
2024-05-09T05:00:00.507Z,1773.3
2024-05-09T05:01:00.597Z,1809.9
2024-05-09T05:02:00.762Z,1823.0
2024-05-09T05:03:00.719Z,1847.5
2024-05-09T05:04:00.631Z,1962.9
2024-05-09T05:05:00.617Z,2024.0
2024-05-09T05:06:00.552Z,1918.2
2024-05-09T05:07:02.840Z,2029.0
2024-05-09T05:08:00.596Z,2054.7
2024-05-09T05:09:00.473Z,2084.9
2024-05-09T05:10:00.464Z,2115.3
2024-05-09T05:11:00.674Z,2101.7
2024-05-09T05:12:00.756Z,2221.4
2024-05-09T05:13:00.502Z,2213.1
2024-05-09T05:14:00.536Z,2242.3
2024-05-09T05:15:00.488Z,2272.6
2024-05-09T05:16:00.500Z,2259.0
2024-05-09T05:17:00.541Z,2301.6
2024-05-09T05:18:00.783Z,2490.6
2024-05-09T05:19:00.538Z,2479.7
2024-05-09T05:20:00.760Z,2612.9
2024-05-09T05:21:00.532Z,2564.4
2024-05-09T05:22:00.487Z,2728.3
2024-05-09T05:23:00.826Z,2795.2
2024-05-09T05:24:00.507Z,2827.0
2024-05-09T05:25:00.523Z,2924.4
2024-05-09T05:26:00.693Z,3018.2
2024-05-09T05:27:00.463Z,3074.7
2024-05-09T05:28:00.476Z,3150.5
2024-05-09T05:29:00.547Z,3168.6
2024-05-09T05:30:00.532Z,3260.6
2024-05-09T05:31:00.505Z,3210.2
2024-05-09T05:32:00.684Z,3365.0
2024-05-09T05:33:01.028Z,3276.9
2024-05-09T05:34:00.705Z,3434.3
2024-05-09T05:35:00.719Z,3428.5
2024-05-09T05:36:00.513Z,3469.6
2024-05-09T05:37:00.518Z,3523.3
2024-05-09T05:38:00.754Z,3591.8
2024-05-09T05:39:00.472Z,3681.7
2024-05-09T05:40:00.516Z,3874.6
2024-05-09T05:41:00.548Z,3834.6
2024-05-09T05:42:00.484Z,3866.2
2024-05-09T05:43:00.482Z,3966.5
2024-05-09T05:44:00.559Z,4052.4
2024-05-09T05:45:00.580Z,4037.5
2024-05-09T05:46:00.502Z,4137.8
2024-05-09T05:47:00.521Z,4158.6
2024-05-09T05:48:02.188Z,4210.2
2024-05-09T05:49:00.559Z,4282.5
2024-05-09T05:50:00.709Z,4371.5
2024-05-09T05:51:03.861Z,4338.8
2024-05-09T05:52:00.476Z,4379.3
2024-05-09T05:53:00.709Z,4522.4
2024-05-09T05:54:00.515Z,4620.3
2024-05-09T05:55:00.463Z,4639.8
2024-05-09T05:56:00.593Z,4681.6
2024-05-09T05:57:00.469Z,4740.7
2024-05-09T05:58:01.155Z,4846.4
2024-05-09T05:59:00.572Z,4899.5
2024-05-09T06:00:00.495Z,4987.9
2024-05-09T06:01:00.570Z,5102.6
2024-05-09T06:02:00.545Z,5219.1
2024-05-09T06:03:00.679Z,5298.1
2024-05-09T06:04:00.769Z,5436.7
2024-05-09T06:05:01.093Z,5418.4
2024-05-09T06:06:01.477Z,5580.9
2024-05-09T06:07:00.526Z,5636.7
2024-05-09T06:08:00.806Z,5693.9
2024-05-09T06:09:00.507Z,5716.9
2024-05-09T06:10:00.614Z,5823.1
2024-05-09T06:11:01.543Z,5834.0
2024-05-09T06:12:00.661Z,5908.7
2024-05-09T06:13:00.581Z,5982.5
2024-05-09T06:14:00.651Z,6018.8
2024-05-09T06:15:00.614Z,6062.7
2024-05-09T06:16:00.618Z,6331.6
2024-05-09T06:17:00.576Z,6550.5
2024-05-09T06:18:01.225Z,6708.5
2024-05-09T06:19:00.715Z,7359.8
2024-05-09T06:20:00.765Z,7887.5
2024-05-09T06:21:00.712Z,7285.7
2024-05-09T06:22:00.663Z,7269.7
2024-05-09T06:23:00.796Z,7341.0
2024-05-09T06:24:02.604Z,7623.3
2024-05-09T06:25:00.638Z,8011.7
2024-05-09T06:26:00.743Z,8359.2
2024-05-09T06:27:00.656Z,5167.1
2024-05-09T06:28:00.761Z,9267.9
2024-05-09T06:29:00.737Z,9603.9
2024-05-09T06:30:00.688Z,10110.5
2024-05-09T06:31:00.967Z,10583.4
2024-05-09T06:32:00.803Z,11214.8
2024-05-09T06:33:00.787Z,11794.4
2024-05-09T06:34:00.658Z,11995.6
2024-05-09T06:35:00.638Z,12649.7
2024-05-09T06:36:00.690Z,12720.9
2024-05-09T06:37:00.518Z,3533.0
2024-05-09T06:38:00.600Z,12720.8
2024-05-09T06:39:00.542Z,12592.0
2024-05-09T06:40:00.495Z,12357.1
2024-05-09T06:41:00.759Z,12315.0
2024-05-09T06:42:00.500Z,12148.6
2024-05-09T06:43:00.472Z,12032.7
2024-05-09T06:44:00.637Z,11886.5
2024-05-09T06:45:00.636Z,12042.0
2024-05-09T06:46:00.513Z,12403.8
2024-05-09T06:47:00.789Z,7417.8
2024-05-09T06:48:00.968Z,13593.7
2024-05-09T06:49:00.699Z,13180.9
2024-05-09T06:50:00.707Z,14089.2
2024-05-09T06:51:00.971Z,14407.8
2024-05-09T06:52:00.539Z,14619.2
2024-05-09T06:53:00.786Z,14632.1
2024-05-09T06:54:00.611Z,14941.3
2024-05-09T06:55:00.553Z,14815.4
2024-05-09T06:56:01.741Z,10651.4
2024-05-09T06:57:00.574Z,15239.3
2024-05-09T06:58:00.641Z,15331.2
2024-05-09T06:59:01.248Z,15560.0
2024-05-09T07:00:00.675Z,15679.6
2024-05-09T07:01:00.820Z,15847.8
2024-05-09T07:02:01.277Z,16021.5
2024-05-09T07:03:05.603Z,16134.1
2024-05-09T07:04:00.761Z,16310.3
2024-05-09T07:05:00.943Z,16247.8
2024-05-09T07:06:00.923Z,16610.9
2024-05-09T07:07:02.077Z,3980.7
2024-05-09T07:08:00.980Z,16883.2
2024-05-09T07:09:00.677Z,17028.2
2024-05-09T07:10:00.684Z,16750.8
2024-05-09T07:11:00.780Z,17295.0
2024-05-09T07:12:00.807Z,7858.1
2024-05-09T07:13:00.704Z,16931.7
2024-05-09T07:14:00.749Z,17692.6
2024-05-09T07:15:00.647Z,16380.4
2024-05-09T07:16:00.695Z,17936.0
2024-05-09T07:17:00.858Z,18010.8
2024-05-09T07:18:06.416Z,18132.3
2024-05-09T07:19:00.851Z,17885.0
2024-05-09T07:20:00.854Z,18563.2
2024-05-09T07:21:00.863Z,7417.8
2024-05-09T07:22:00.667Z,11261.0
2024-05-09T07:23:02.002Z,19049.0
2024-05-09T07:24:00.930Z,18737.4
2024-05-09T07:25:00.850Z,4303.3
2024-05-09T07:26:01.284Z,19444.4
2024-05-09T07:27:00.529Z,19533.1
2024-05-09T07:28:00.630Z,19778.0
2024-05-09T07:29:00.886Z,4159.0
2024-05-09T07:30:00.579Z,19953.7
2024-05-09T07:31:00.461Z,20177.6
2024-05-09T07:32:00.781Z,20240.8
2024-05-09T07:33:01.838Z,20174.9
2024-05-09T07:34:00.872Z,20471.6
2024-05-09T07:35:00.741Z,20494.0
2024-05-09T07:36:00.565Z,19603.9
2024-05-09T07:37:00.676Z,4933.2
2024-05-09T07:38:00.582Z,20917.8
2024-05-09T07:39:00.551Z,20058.2
2024-05-09T07:40:00.597Z,21119.0
2024-05-09T07:41:00.766Z,20946.7
2024-05-09T07:42:00.467Z,21240.9
2024-05-09T07:43:01.851Z,21332.9
2024-05-09T07:44:00.601Z,21300.3
2024-05-09T07:45:20.559Z,21525.8
2024-05-09T07:46:45.435Z,21104.6
2024-05-09T07:50:35.950Z,5212.0
2024-05-09T07:51:47.607Z,22287.1
2024-05-09T07:53:07.516Z,22169.4
2024-05-09T07:53:25.275Z,22548.6
2024-05-09T07:53:36.027Z,23032.5
2024-05-09T07:54:01.484Z,22469.6
2024-05-09T07:55:00.892Z,23108.0
2024-05-09T07:56:00.686Z,23013.0
2024-05-09T07:57:00.666Z,22158.4
2024-05-09T07:58:00.530Z,23302.9
2024-05-09T07:59:00.489Z,23636.8
2024-05-09T08:00:00.541Z,23958.7
2024-05-09T08:01:00.720Z,24180.7
2024-05-09T08:02:00.855Z,24348.3
2024-05-09T08:03:00.508Z,24687.3
2024-05-09T08:04:00.729Z,24596.2
2024-05-09T08:05:00.737Z,24983.5
2024-05-09T08:06:00.470Z,25003.9
2024-05-09T08:07:00.492Z,25000.9
2024-05-09T08:08:00.534Z,25461.2
2024-05-09T08:09:05.323Z,25401.6
2024-05-09T08:10:00.594Z,25666.0
2024-05-09T08:11:00.940Z,25684.4
2024-05-09T08:12:00.487Z,26033.9
2024-05-09T08:13:00.530Z,26185.2
2024-05-09T08:14:00.477Z,26241.6
2024-05-09T08:15:00.517Z,26397.3
2024-05-09T08:16:00.880Z,26411.7
2024-05-09T08:17:00.571Z,26615.6
2024-05-09T08:18:00.840Z,26841.2
2024-05-09T08:19:00.749Z,26762.2
2024-05-09T08:20:02.012Z,27098.2
2024-05-09T08:21:00.462Z,27147.7
2024-05-09T08:22:00.558Z,27303.2
2024-05-09T08:23:00.479Z,27282.9
2024-05-09T08:24:00.534Z,27506.0
2024-05-09T08:25:00.776Z,27687.1
2024-05-09T08:26:00.489Z,27950.6
2024-05-09T08:27:00.731Z,27845.1
2024-05-09T08:28:02.463Z,27884.1
2024-05-09T08:29:00.593Z,27854.6
2024-05-09T08:30:00.638Z,28104.4
2024-05-09T08:31:03.190Z,28115.8
2024-05-09T08:32:00.638Z,28270.1
2024-05-09T08:33:00.566Z,28274.1
2024-05-09T08:34:00.761Z,28431.2
2024-05-09T08:35:00.555Z,28201.8
2024-05-09T08:36:00.466Z,28823.2
2024-05-09T08:37:06.132Z,29169.5
2024-05-09T08:38:01.455Z,29122.0
2024-05-09T08:39:00.519Z,29132.6
2024-05-09T08:40:00.681Z,13628.0
2024-05-09T08:41:02.498Z,29900.6
2024-05-09T08:42:00.710Z,30613.5
2024-05-09T08:43:01.308Z,30408.3
2024-05-09T08:44:01.325Z,30093.7
2024-05-09T08:45:00.631Z,30309.2
2024-05-09T08:46:01.017Z,9211.3
2024-05-09T08:47:01.608Z,13145.2
2024-05-09T08:48:01.382Z,32376.4
2024-05-09T08:49:01.793Z,33061.8
2024-05-09T08:50:01.896Z,32749.9
2024-05-09T08:51:00.508Z,32456.8
2024-05-09T08:52:00.706Z,27922.4
2024-05-09T08:53:00.520Z,33303.9
2024-05-09T08:54:00.522Z,33770.8
2024-05-09T08:55:00.602Z,34022.9
2024-05-09T08:56:01.002Z,34030.3
2024-05-09T08:57:01.219Z,33853.8
2024-05-09T08:58:02.376Z,33852.4
2024-05-09T08:59:00.874Z,34161.8
2024-05-09T09:00:04.851Z,33268.4
2024-05-09T09:01:01.259Z,34481.3
2024-05-09T09:02:01.569Z,33447.4
2024-05-09T09:03:01.585Z,33479.2
2024-05-09T09:04:01.492Z,33713.3
2024-05-09T09:05:04.832Z,33887.4
2024-05-09T09:06:01.544Z,32369.3
2024-05-09T09:07:02.330Z,34374.6
2024-05-09T09:08:03.348Z,33588.8
2024-05-09T09:09:02.102Z,35192.1
2024-05-09T09:10:01.658Z,35365.3
2024-05-09T09:11:00.590Z,35880.7
2024-05-09T09:12:00.560Z,35754.2
2024-05-09T09:13:00.858Z,34777.7
2024-05-09T09:14:00.499Z,35995.0
2024-05-09T09:15:00.518Z,36941.1
2024-05-09T09:16:00.785Z,38198.4
2024-05-09T09:17:10.473Z,39288.2
2024-05-09T09:18:01.264Z,39868.3
2024-05-09T09:19:00.598Z,40026.5
2024-05-09T09:20:00.816Z,40383.6
2024-05-09T09:21:00.516Z,40221.7
2024-05-09T09:22:00.594Z,40475.1
2024-05-09T09:23:00.466Z,40367.4
2024-05-09T09:24:00.489Z,41546.7
2024-05-09T09:25:00.568Z,42793.7
2024-05-09T09:26:00.561Z,42888.0
2024-05-09T09:27:00.467Z,42669.3
2024-05-09T09:28:00.583Z,43101.5
2024-05-09T09:29:00.826Z,42895.9
2024-05-09T09:30:00.568Z,42484.8
2024-05-09T09:31:00.860Z,41393.3
2024-05-09T09:32:00.824Z,41083.3
2024-05-09T09:33:00.645Z,42046.0
2024-05-09T09:34:04.755Z,37937.7
2024-05-09T09:35:00.725Z,42538.8
2024-05-09T09:36:01.670Z,43574.4
2024-05-09T09:37:03.028Z,43405.5
2024-05-09T09:38:01.202Z,43256.6
2024-05-09T09:39:01.371Z,12305.2
2024-05-09T09:40:01.685Z,10463.2
2024-05-09T09:41:04.111Z,9887.7
2024-05-09T09:42:01.521Z,10676.4
2024-05-09T09:43:00.737Z,40228.9
2024-05-09T09:44:01.567Z,43898.2
2024-05-09T09:45:05.142Z,43298.4
2024-05-09T09:46:00.627Z,43539.0
2024-05-09T09:47:01.544Z,43551.4
2024-05-09T09:48:00.769Z,43260.0
2024-05-09T09:49:01.054Z,43268.8
2024-05-09T09:50:00.897Z,44370.2
2024-05-09T09:51:01.019Z,39703.8
2024-05-09T09:52:00.684Z,45621.6
2024-05-09T09:53:01.298Z,39060.6
2024-05-09T09:54:02.542Z,27549.6
2024-05-09T09:55:01.680Z,47146.2
2024-05-09T09:56:00.906Z,46802.2
2024-05-09T09:57:03.153Z,47542.9
2024-05-09T09:58:02.448Z,46575.0
2024-05-09T09:59:01.615Z,17283.5
2024-05-09T10:00:00.527Z,45046.2
2024-05-09T10:01:00.778Z,18374.0
2024-05-09T10:02:00.712Z,44263.3
2024-05-09T10:03:01.254Z,16382.9
2024-05-09T10:04:01.147Z,12758.3
2024-05-09T10:05:00.704Z,13916.7
2024-05-09T10:06:00.828Z,17011.4
2024-05-09T10:07:02.026Z,15111.2
2024-05-09T10:08:02.890Z,46291.2
2024-05-09T10:09:00.656Z,46935.1
2024-05-09T10:10:00.644Z,12647.2
2024-05-09T10:11:02.292Z,16408.3
2024-05-09T10:12:19.504Z,19587.3
2024-05-09T10:13:02.380Z,48246.4
2024-05-09T10:14:00.708Z,49006.9
2024-05-09T10:15:08.389Z,36035.0
2024-05-09T10:16:06.186Z,38858.2
2024-05-09T10:17:03.844Z,47806.5
2024-05-09T10:18:04.120Z,49417.3
2024-05-09T10:19:00.946Z,50267.1
2024-05-09T10:20:14.837Z,50113.8
2024-05-09T10:21:00.508Z,49804.1
2024-05-09T10:22:01.151Z,49741.5
2024-05-09T10:23:01.560Z,44515.8
2024-05-09T10:24:02.203Z,49185.3
2024-05-09T10:25:05.281Z,48493.9
2024-05-09T10:26:01.277Z,48686.9
2024-05-09T10:27:02.675Z,47875.5
2024-05-09T10:28:00.563Z,47734.6
2024-05-09T10:29:16.801Z,46866.3
2024-05-09T10:30:01.590Z,47517.0
2024-05-09T10:32:00.768Z,48935.5
2024-05-09T10:33:00.627Z,48774.9
2024-05-09T10:34:00.902Z,49444.1
2024-05-09T10:35:09.034Z,49451.0
2024-05-09T10:36:02.112Z,50273.2
2024-05-09T10:37:02.838Z,50589.7
2024-05-09T10:38:04.416Z,51149.3
2024-05-09T10:39:00.601Z,49478.8
2024-05-09T10:40:00.715Z,50536.3
2024-05-09T10:41:01.121Z,31410.0
2024-05-09T10:42:00.735Z,50770.4
2024-05-09T10:43:04.707Z,15744.6
2024-05-09T10:44:00.722Z,20410.0
2024-05-09T10:45:00.901Z,51455.2
2024-05-09T10:46:00.878Z,49219.0
2024-05-09T10:47:00.784Z,48722.3
2024-05-09T10:48:00.866Z,47916.0
2024-05-09T10:49:04.262Z,49750.6
2024-05-09T10:50:01.448Z,16992.8
2024-05-09T10:51:00.640Z,27143.3
2024-05-09T10:52:02.372Z,33611.8
2024-05-09T10:53:01.258Z,49044.5
2024-05-09T10:54:00.774Z,48691.6
2024-05-09T10:55:02.303Z,46937.0
2024-05-09T10:56:00.787Z,47522.8
2024-05-09T10:57:00.670Z,49312.2
2024-05-09T10:58:00.763Z,49131.8
2024-05-09T10:59:03.740Z,48934.5
2024-05-09T11:00:00.669Z,49930.2
2024-05-09T11:01:04.348Z,50121.8
2024-05-09T11:02:02.529Z,12212.5
2024-05-09T11:03:00.638Z,11964.3
2024-05-09T11:04:00.906Z,30077.9
2024-05-09T11:05:00.754Z,51377.8
2024-05-09T11:06:00.738Z,24985.3
2024-05-09T11:07:05.438Z,48688.6
2024-05-09T11:08:00.687Z,47413.5
2024-05-09T11:09:00.558Z,46329.2
2024-05-09T11:10:00.685Z,45038.0
2024-05-09T11:11:01.559Z,46448.7
2024-05-09T11:12:01.379Z,46885.1
2024-05-09T11:13:00.681Z,39120.5
2024-05-09T11:14:10.159Z,45590.2
2024-05-09T11:15:00.486Z,46029.7
2024-05-09T11:16:01.243Z,45058.1
2024-05-09T11:17:01.329Z,44662.2
2024-05-09T11:18:00.628Z,45383.9
2024-05-09T11:19:00.820Z,24302.7
2024-05-09T11:20:00.708Z,22488.5
2024-05-09T11:21:00.607Z,45115.6
2024-05-09T11:22:00.555Z,46216.1
2024-05-09T11:23:07.640Z,46595.7
2024-05-09T11:24:00.515Z,34424.5
2024-05-09T11:25:00.623Z,44995.1
2024-05-09T11:26:00.710Z,45907.3
2024-05-09T11:27:01.626Z,47024.6
2024-05-09T11:28:00.881Z,22675.2
2024-05-09T11:29:00.457Z,49948.3
2024-05-09T11:30:00.516Z,47380.0
2024-05-09T11:31:04.325Z,46538.2
2024-05-09T11:32:00.532Z,46805.9
2024-05-09T11:33:00.756Z,46127.1
2024-05-09T11:34:00.550Z,48026.1
2024-05-09T11:35:00.492Z,47639.7
2024-05-09T11:36:00.584Z,46404.4
2024-05-09T11:37:00.678Z,11317.1
2024-05-09T11:38:00.524Z,10591.1
2024-05-09T11:39:00.511Z,16781.5
2024-05-09T11:40:00.624Z,50067.4
2024-05-09T11:41:00.828Z,27992.4
2024-05-09T11:42:00.483Z,49603.3
2024-05-09T11:43:00.588Z,37963.6
2024-05-09T11:44:00.625Z,16729.5
2024-05-09T11:45:00.507Z,12613.3
2024-05-09T11:46:01.318Z,12869.1
2024-05-09T11:47:01.248Z,12146.7
2024-05-09T11:48:00.774Z,11851.9
2024-05-09T11:49:00.783Z,21958.4
2024-05-09T11:50:00.691Z,15045.3
2024-05-09T11:51:00.478Z,31631.3
2024-05-09T11:52:00.709Z,45124.7
2024-05-09T11:53:00.482Z,46360.1
2024-05-09T11:54:00.578Z,46169.7
2024-05-09T11:55:00.513Z,46512.8
2024-05-09T11:56:00.512Z,47227.6
2024-05-09T11:57:00.558Z,47759.5
2024-05-09T11:58:02.076Z,47639.7
2024-05-09T11:59:00.676Z,48320.5
2024-05-09T12:00:00.526Z,48616.7
2024-05-09T12:01:00.636Z,20990.9
2024-05-09T12:02:00.678Z,18943.3
2024-05-09T12:03:00.576Z,13875.6
2024-05-09T12:04:01.153Z,14309.2
2024-05-09T12:05:00.653Z,11366.4
2024-05-09T12:06:00.745Z,10135.6
2024-05-09T12:07:00.581Z,9332.7
2024-05-09T12:08:00.988Z,9795.8
2024-05-09T12:09:00.509Z,42836.6
2024-05-09T12:10:00.683Z,46053.8
2024-05-09T12:11:00.874Z,42313.1
2024-05-09T12:12:00.503Z,44178.9
2024-05-09T12:13:00.595Z,43857.5
2024-05-09T12:14:00.485Z,43775.2
2024-05-09T12:15:00.509Z,43784.0
2024-05-09T12:16:00.588Z,43525.7
2024-05-09T12:17:00.620Z,43366.3
2024-05-09T12:18:03.582Z,43172.0
2024-05-09T12:19:00.798Z,43008.3
2024-05-09T12:20:00.522Z,43898.2
2024-05-09T12:21:00.796Z,15622.4
2024-05-09T12:22:00.523Z,43505.4
2024-05-09T12:23:00.477Z,23042.7
2024-05-09T12:24:00.465Z,43143.3
2024-05-09T12:25:00.532Z,43456.9
2024-05-09T12:26:00.552Z,41535.8
2024-05-09T12:27:00.539Z,11392.5
2024-05-09T12:28:01.059Z,44895.6
2024-05-09T12:29:00.478Z,45349.2
2024-05-09T12:30:00.517Z,45613.0
2024-05-09T12:31:00.536Z,46748.4
2024-05-09T12:32:00.517Z,37595.0
2024-05-09T12:33:00.563Z,33301.9
2024-05-09T12:34:00.737Z,49049.5
2024-05-09T12:35:00.507Z,48564.1
2024-05-09T12:36:00.654Z,48045.6
2024-05-09T12:37:00.697Z,46806.9
2024-05-09T12:38:00.828Z,47072.7
2024-05-09T12:39:00.984Z,46028.7
2024-05-09T12:40:00.572Z,46462.8
2024-05-09T12:41:00.586Z,46544.8
2024-05-09T12:42:00.511Z,46655.1